Time;durP1;ratioP1;P1;durP2;ratioP2;P2;SDS_P1;SDS_P2;PMS_P1;PMS_P2;Temp;Humidity;BMP_temperature;BMP_pressure;BME280_temperature;BME280_humidity;BME280_pressure;Samples;Min_cycle;Max_cycle;Signal;HPM_P1;HPM_P2
2022/05/04 00:00:01;;;;;;;2.35;1.40;;;19.30;31.60;;;;;;5038639;28;20256;-86
2022/05/04 00:02:27;;;;;;;2.00;1.42;;;19.30;31.60;;;;;;5022797;28;20177;-85
2022/05/04 00:04:52;;;;;;;2.08;1.30;;;19.30;31.50;;;;;;5052333;28;20304;-86
2022/05/04 00:07:18;;;;;;;2.13;1.45;;;19.30;32.00;;;;;;5019441;28;20194;-86
2022/05/04 00:09:44;;;;;;;3.00;1.30;;;19.30;32.10;;;;;;5003046;28;20177;-85
2022/05/04 00:12:11;;;;;;;2.58;1.30;;;19.30;32.10;;;;;;5018844;28;20163;-85
2022/05/04 00:14:37;;;;;;;3.17;1.40;;;19.30;31.90;;;;;;5003241;28;20205;-86
2022/05/04 00:17:03;;;;;;;4.70;1.38;;;19.30;31.90;;;;;;5002996;28;20700;-85
2022/05/04 00:19:29;;;;;;;1.42;1.20;;;19.30;32.10;;;;;;5036903;28;20212;-85
2022/05/04 00:21:59;;;;;;;2.88;1.58;;;19.30;32.20;;;;;;5036749;28;20162;-85
2022/05/04 00:24:25;;;;;;;2.42;1.40;;;19.30;32.50;;;;;;4985685;28;20220;-85
2022/05/04 00:26:51;;;;;;;2.72;1.33;;;19.30;32.50;;;;;;5002696;28;20171;-85
2022/05/04 00:29:16;;;;;;;1.38;1.27;;;19.30;32.40;;;;;;5003001;28;20158;-85
2022/05/04 00:31:42;;;;;;;3.50;1.50;;;19.30;32.40;;;;;;5003015;28;20163;-86
2022/05/04 00:34:08;;;;;;;3.97;1.30;;;19.20;32.40;;;;;;5019141;28;20167;-85
2022/05/04 00:36:34;;;;;;;2.90;1.50;;;19.20;32.50;;;;;;5018919;28;20216;-87
2022/05/04 00:39:00;;;;;;;3.17;1.40;;;19.30;32.50;;;;;;5019241;28;20158;-85
2022/05/04 00:41:26;;;;;;;3.05;1.45;;;19.20;32.30;;;;;;5019000;28;20167;-85
2022/05/04 00:43:52;;;;;;;1.85;1.40;;;19.20;32.30;;;;;;5002835;28;20209;-86
2022/05/04 00:46:18;;;;;;;4.35;1.33;;;19.20;32.50;;;;;;5018775;28;20147;-86
2022/05/04 00:48:45;;;;;;;3.47;1.58;;;19.20;32.40;;;;;;5002333;28;20266;-86
2022/05/04 00:51:14;;;;;;;3.50;1.40;;;19.20;32.40;;;;;;5002782;28;20257;-86
2022/05/04 00:53:41;;;;;;;2.40;1.50;;;19.20;32.40;;;;;;5018045;28;20191;-85
2022/05/04 00:56:08;;;;;;;1.42;1.17;;;19.20;32.40;;;;;;5018586;28;20670;-85
2022/05/04 01:01:21;;;;;;;2.03;1.38;;;19.20;32.50;;;;;;5021419;28;20527;-86
2022/05/04 01:03:47;;;;;;;2.33;1.33;;;19.20;32.40;;;;;;5018338;28;20205;-85
2022/05/04 01:06:13;;;;;;;3.90;1.15;;;19.20;32.40;;;;;;5017167;28;20217;-86
2022/05/04 01:08:39;;;;;;;3.40;1.20;;;19.10;32.40;;;;;;5038082;28;20177;-86
2022/05/04 01:11:06;;;;;;;3.92;1.63;;;19.10;32.50;;;;;;5020636;28;20178;-85
2022/05/04 01:13:34;;;;;;;3.53;1.40;;;19.20;32.50;;;;;;5021473;28;20231;-85
2022/05/04 01:16:01;;;;;;;2.15;1.55;;;19.10;32.50;;;;;;5020909;28;20193;-86
2022/05/04 01:18:29;;;;;;;2.38;1.17;;;19.10;32.60;;;;;;5020675;28;20702;-86
2022/05/04 01:20:59;;;;;;;3.47;1.48;;;19.10;32.60;;;;;;5020625;28;20640;-86
2022/05/04 01:23:28;;;;;;;3.00;1.42;;;19.10;32.60;;;;;;5037131;28;20225;-86
2022/05/04 01:25:56;;;;;;;2.15;1.10;;;19.10;32.70;;;;;;4988123;28;20194;-86
2022/05/04 01:28:23;;;;;;;1.92;1.30;;;19.10;32.80;;;;;;5020771;28;20189;-86
2022/05/04 01:30:51;;;;;;;3.55;1.20;;;19.00;32.80;;;;;;5020300;28;20269;-85
2022/05/04 01:33:18;;;;;;;2.35;1.30;;;19.10;32.90;;;;;;5020456;28;20182;-85
2022/05/04 01:35:44;;;;;;;1.88;1.10;;;19.10;32.90;;;;;;5020577;28;20192;-85
2022/05/04 01:38:11;;;;;;;4.35;1.70;;;19.10;33.00;;;;;;5037591;28;20158;-85
2022/05/04 01:40:38;;;;;;;1.20;1.10;;;19.10;33.10;;;;;;5036732;28;20185;-85
2022/05/04 01:43:05;;;;;;;1.80;1.42;;;19.10;33.20;;;;;;5020078;28;20187;-85
2022/05/04 01:45:32;;;;;;;2.78;1.30;;;19.10;33.30;;;;;;5003608;28;20178;-85
2022/05/04 01:47:59;;;;;;;2.30;1.45;;;19.00;33.20;;;;;;5020001;28;20186;-85
2022/05/04 01:50:25;;;;;;;2.65;1.30;;;19.00;33.30;;;;;;5036351;28;20601;-85
2022/05/04 01:52:52;;;;;;;1.58;1.23;;;19.10;33.40;;;;;;5020011;28;20189;-85
2022/05/04 01:55:19;;;;;;;4.43;1.60;;;19.00;33.50;;;;;;5019894;28;20189;-85
2022/05/04 01:57:46;;;;;;;1.73;1.33;;;19.10;33.60;;;;;;5019936;28;20186;-85
2022/05/04 02:00:13;;;;;;;3.13;1.30;;;19.00;33.50;;;;;;5020162;28;20235;-85
2022/05/04 02:02:39;;;;;;;2.95;1.23;;;19.00;33.60;;;;;;5020946;28;20162;-85
2022/05/04 02:05:05;;;;;;;2.33;1.38;;;19.00;33.50;;;;;;5036840;28;20228;-86
2022/05/04 02:07:33;;;;;;;1.52;1.27;;;19.00;33.50;;;;;;5037053;28;20177;-85
2022/05/04 02:09:59;;;;;;;1.88;1.38;;;19.00;33.50;;;;;;5036981;28;20159;-86
2022/05/04 02:12:27;;;;;;;1.77;1.20;;;19.00;33.50;;;;;;5037283;28;20150;-85
2022/05/04 02:14:55;;;;;;;2.28;1.33;;;19.00;33.50;;;;;;5020300;28;20170;-86
2022/05/04 02:17:22;;;;;;;2.33;1.00;;;18.90;33.50;;;;;;5019699;28;20622;-85
2022/05/04 02:19:50;;;;;;;2.55;1.30;;;19.00;33.50;;;;;;5019613;28;20177;-86
2022/05/04 02:22:18;;;;;;;2.85;1.25;;;19.00;33.50;;;;;;5003149;28;20240;-86
2022/05/04 02:24:45;;;;;;;1.58;1.40;;;19.00;33.50;;;;;;5019522;28;20308;-85
2022/05/04 02:27:12;;;;;;;3.38;1.60;;;18.90;33.60;;;;;;5035930;28;20185;-85
2022/05/04 02:29:39;;;;;;;1.98;1.30;;;19.00;33.70;;;;;;4986674;28;20174;-85
2022/05/04 02:32:05;;;;;;;3.65;1.30;;;19.00;33.70;;;;;;5002831;28;20188;-85
2022/05/04 02:34:31;;;;;;;1.15;1.05;;;19.00;33.70;;;;;;5036541;28;20174;-85
2022/05/04 02:39:35;;;;;;;4.43;1.38;;;19.00;33.80;;;;;;5022578;28;20224;-85
2022/05/04 02:42:01;;;;;;;1.73;1.20;;;19.00;33.90;;;;;;5036521;28;20208;-85
2022/05/04 02:44:27;;;;;;;1.65;1.20;;;18.90;33.90;;;;;;5024877;28;20182;-85
2022/05/04 02:46:53;;;;;;;1.25;1.15;;;18.90;33.90;;;;;;5016911;28;20240;-85
2022/05/04 02:49:19;;;;;;;3.70;1.52;;;18.90;33.90;;;;;;5035370;28;20614;-85
2022/05/04 02:51:45;;;;;;;3.00;1.13;;;18.90;34.00;;;;;;5019709;28;20655;-86
2022/05/04 02:54:11;;;;;;;1.77;1.20;;;18.90;34.00;;;;;;5019642;28;20173;-85
2022/05/04 02:56:37;;;;;;;3.50;1.15;;;18.90;34.00;;;;;;5035973;28;20514;-85
2022/05/04 02:59:03;;;;;;;2.13;1.30;;;18.90;34.00;;;;;;5019497;28;20204;-85
2022/05/04 03:04:06;;;;;;;2.58;1.25;;;18.90;34.10;;;;;;5037589;28;20185;-85
2022/05/04 03:06:36;;;;;;;1.85;1.20;;;18.90;34.10;;;;;;5035865;28;20677;-85
2022/05/04 03:09:07;;;;;;;1.50;1.13;;;18.90;34.20;;;;;;5035203;28;20174;-86
2022/05/04 03:14:20;;;;;;;2.53;1.05;;;18.90;34.20;;;;;;5038304;28;20162;-85
2022/05/04 03:16:47;;;;;;;2.25;1.40;;;18.90;34.30;;;;;;5019708;28;20212;-85
2022/05/04 03:19:13;;;;;;;2.35;1.33;;;18.90;34.20;;;;;;5035783;28;20256;-85
2022/05/04 03:21:41;;;;;;;1.83;1.20;;;18.90;34.30;;;;;;5019309;28;20539;-85
2022/05/04 03:24:09;;;;;;;2.58;1.23;;;18.90;34.30;;;;;;5035168;28;20213;-85
2022/05/04 03:26:36;;;;;;;2.95;1.20;;;18.90;34.40;;;;;;5002070;28;20666;-85
2022/05/04 03:29:04;;;;;;;2.38;1.40;;;18.90;34.50;;;;;;5034930;28;20270;-85
2022/05/04 03:31:31;;;;;;;1.92;1.15;;;18.90;34.40;;;;;;5034855;28;20232;-85
2022/05/04 03:33:58;;;;;;;1.98;1.10;;;18.90;34.30;;;;;;5017830;28;20182;-84
2022/05/04 03:36:25;;;;;;;1.85;1.30;;;18.80;34.20;;;;;;5018120;28;20178;-85
2022/05/04 03:38:52;;;;;;;2.30;1.38;;;18.90;34.50;;;;;;5018555;28;20178;-84
2022/05/04 03:41:19;;;;;;;2.05;1.15;;;18.90;34.50;;;;;;5034563;28;20186;-85
2022/05/04 03:43:45;;;;;;;2.38;1.40;;;18.90;34.50;;;;;;5018197;28;20206;-85
2022/05/04 03:46:15;;;;;;;3.95;1.42;;;18.90;34.60;;;;;;5035717;28;20147;-85
2022/05/04 03:48:43;;;;;;;2.70;1.30;;;18.90;34.60;;;;;;5035134;28;20161;-84
2022/05/04 03:51:09;;;;;;;1.83;1.27;;;18.90;34.60;;;;;;5018989;28;20158;-85
2022/05/04 03:53:36;;;;;;;2.00;1.38;;;18.90;34.70;;;;;;5018696;28;20169;-85
2022/05/04 03:56:02;;;;;;;4.68;1.33;;;18.80;34.70;;;;;;5035286;28;20632;-84
2022/05/04 03:58:28;;;;;;;2.15;1.23;;;18.90;34.60;;;;;;5044684;28;20169;-85
2022/05/04 04:00:54;;;;;;;3.35;1.40;;;18.80;34.50;;;;;;5035713;28;20162;-84
2022/05/04 04:03:19;;;;;;;1.65;1.20;;;18.90;34.60;;;;;;5018634;28;20197;-85
2022/05/04 04:05:45;;;;;;;3.63;1.40;;;18.90;34.60;;;;;;5034918;28;20221;-84
2022/05/04 04:08:11;;;;;;;3.67;1.25;;;18.90;34.70;;;;;;5018635;28;20158;-84
2022/05/04 04:10:37;;;;;;;1.48;1.10;;;18.90;34.70;;;;;;5018502;28;20162;-84
2022/05/04 04:13:05;;;;;;;1.63;1.10;;;18.90;34.60;;;;;;5035101;28;20189;-83
2022/05/04 04:15:31;;;;;;;1.60;1.25;;;19.00;34.60;;;;;;5035150;28;20171;-84
2022/05/04 04:17:57;;;;;;;2.25;1.20;;;19.00;34.60;;;;;;5035414;28;20162;-85
2022/05/04 04:23:01;;;;;;;1.65;1.35;;;19.00;34.50;;;;;;5051552;28;20583;-84
2022/05/04 04:25:27;;;;;;;1.92;1.20;;;19.00;34.40;;;;;;5051722;28;20636;-85
2022/05/04 04:27:52;;;;;;;1.42;1.10;;;19.10;34.50;;;;;;5051136;28;20162;-85
2022/05/04 04:30:18;;;;;;;1.65;1.10;;;19.10;34.60;;;;;;5051406;28;20185;-85
2022/05/04 04:32:44;;;;;;;2.63;1.08;;;19.10;34.40;;;;;;5035175;28;20166;-84
2022/05/04 04:35:10;;;;;;;1.73;1.20;;;19.10;34.30;;;;;;5051486;28;20199;-85
2022/05/04 04:37:36;;;;;;;2.67;1.20;;;19.10;34.30;;;;;;5035078;28;20257;-85
2022/05/04 04:40:02;;;;;;;3.75;1.40;;;19.20;34.30;;;;;;5051207;28;20520;-84
2022/05/04 04:42:28;;;;;;;1.83;1.08;;;19.20;34.20;;;;;;5051239;28;20163;-85
2022/05/04 04:44:54;;;;;;;3.72;1.58;;;19.20;34.30;;;;;;5035068;28;20413;-84
2022/05/04 04:47:20;;;;;;;1.65;1.30;;;19.20;34.00;;;;;;5054982;28;20617;-84
2022/05/04 04:49:49;;;;;;;1.98;1.30;;;19.30;34.20;;;;;;5054978;28;20155;-86
2022/05/04 04:52:15;;;;;;;3.33;1.00;;;19.30;34.00;;;;;;5037838;28;20641;-85
2022/05/04 04:54:42;;;;;;;2.03;1.40;;;19.20;34.10;;;;;;5054854;28;20162;-84
2022/05/04 04:57:07;;;;;;;2.15;1.27;;;19.20;34.20;;;;;;5055028;28;20151;-85
2022/05/04 04:59:33;;;;;;;2.40;1.30;;;19.20;34.20;;;;;;5056447;28;20165;-85
2022/05/04 05:01:59;;;;;;;2.35;1.15;;;19.20;34.00;;;;;;5038158;28;20170;-86
2022/05/04 05:04:24;;;;;;;1.42;0.90;;;19.20;34.10;;;;;;5056078;28;20185;-84
2022/05/04 05:06:50;;;;;;;3.58;1.35;;;19.20;34.00;;;;;;5054760;28;20204;-84
2022/05/04 05:09:16;;;;;;;1.50;1.00;;;19.10;34.20;;;;;;5054698;28;20204;-86
2022/05/04 05:11:44;;;;;;;1.52;1.00;;;19.30;34.30;;;;;;5038219;28;20166;-84
2022/05/04 05:16:53;;;;;;;1.33;1.20;;;19.20;34.00;;;;;;5039710;28;20268;-86
2022/05/04 05:19:21;;;;;;;1.08;1.00;;;19.30;34.10;;;;;;5020040;28;20186;-85
2022/05/04 05:21:48;;;;;;;1.00;0.90;;;19.30;34.30;;;;;;5020862;28;20190;-84
2022/05/04 05:24:15;;;;;;;2.50;1.13;;;19.20;34.20;;;;;;5036765;28;20209;-85
2022/05/04 05:26:43;;;;;;;4.90;1.30;;;19.20;34.20;;;;;;5037113;28;20269;-84
2022/05/04 05:29:10;;;;;;;1.67;1.02;;;19.20;34.30;;;;;;5020110;28;20541;-85
2022/05/04 05:31:37;;;;;;;1.58;0.98;;;19.30;34.10;;;;;;5020567;28;20182;-85
2022/05/04 05:34:04;;;;;;;1.27;1.10;;;19.20;34.20;;;;;;5019833;28;20189;-84
2022/05/04 05:36:31;;;;;;;2.55;1.23;;;19.30;34.10;;;;;;5036315;28;20190;-86
2022/05/04 05:38:57;;;;;;;2.00;1.10;;;19.30;34.10;;;;;;5020562;28;20547;-84
2022/05/04 05:41:23;;;;;;;1.13;1.00;;;19.30;34.20;;;;;;5003881;28;20188;-84
2022/05/04 05:43:52;;;;;;;2.47;1.10;;;19.20;34.10;;;;;;5068117;28;20197;-85
2022/05/04 05:46:18;;;;;;;1.55;1.20;;;19.30;34.10;;;;;;5073122;28;20624;-85
2022/05/04 05:48:45;;;;;;;2.97;1.05;;;19.40;34.20;;;;;;5057109;28;20239;-84
2022/05/04 05:51:11;;;;;;;1.85;1.33;;;19.40;34.00;;;;;;5075282;28;20608;-85
2022/05/04 05:53:38;;;;;;;2.40;1.30;;;19.30;34.10;;;;;;5074016;28;20168;-85
2022/05/04 05:56:05;;;;;;;2.05;0.95;;;19.40;34.00;;;;;;5039592;28;20246;-85
2022/05/04 05:58:32;;;;;;;1.13;0.98;;;19.30;34.00;;;;;;5023763;28;20643;-86
2022/05/04 06:00:57;;;;;;;2.35;1.00;;;19.30;34.00;;;;;;5006925;28;20181;-86
2022/05/04 06:03:23;;;;;;;1.88;1.38;;;19.30;33.90;;;;;;5074746;28;20181;-84
2022/05/04 06:05:49;;;;;;;1.23;0.90;;;19.30;34.20;;;;;;5057255;28;20691;-85
2022/05/04 06:08:15;;;;;;;2.28;1.17;;;19.30;34.10;;;;;;5059065;28;20231;-85
2022/05/04 06:10:40;;;;;;;2.50;1.30;;;19.30;33.90;;;;;;5057555;28;20177;-84
2022/05/04 06:13:06;;;;;;;1.98;1.10;;;19.30;33.90;;;;;;5040292;28;20220;-86
2022/05/04 06:15:32;;;;;;;1.95;1.13;;;19.30;33.90;;;;;;5040814;28;20169;-85
2022/05/04 06:18:01;;;;;;;1.50;1.00;;;19.30;34.20;;;;;;5036604;28;20530;-85
2022/05/04 06:20:29;;;;;;;1.23;1.00;;;19.30;34.20;;;;;;5006597;28;20224;-85
2022/05/04 06:22:57;;;;;;;1.00;0.90;;;19.30;34.20;;;;;;4993541;28;20330;-86
2022/05/04 06:25:27;;;;;;;1.92;1.20;;;19.30;34.10;;;;;;5010374;28;20391;-86
2022/05/04 06:27:52;;;;;;;1.90;1.23;;;19.30;34.30;;;;;;5050263;28;20188;-85
2022/05/04 06:35:44;;;;;;;0.90;0.85;;;19.30;34.20;;;;;;5081479;28;20238;-84
2022/05/04 06:38:10;;;;;;;1.45;0.93;;;19.30;33.80;;;;;;5077475;28;20156;-85
2022/05/04 06:40:37;;;;;;;1.42;1.10;;;19.30;33.80;;;;;;5079196;28;20240;-84
2022/05/04 06:43:04;;;;;;;1.55;1.13;;;19.30;34.10;;;;;;5078925;28;20655;-85
2022/05/04 06:45:33;;;;;;;0.95;0.90;;;19.30;34.20;;;;;;5081664;28;20171;-86
2022/05/04 06:48:03;;;;;;;0.80;0.80;;;19.40;34.60;;;;;;5062368;28;20536;-86
2022/05/04 06:50:29;;;;;;;1.50;0.90;;;19.40;34.70;;;;;;5061187;28;20536;-85
2022/05/04 06:52:54;;;;;;;1.27;0.93;;;19.30;34.50;;;;;;5061969;28;20165;-85
2022/05/04 06:55:20;;;;;;;1.17;0.95;;;19.30;34.40;;;;;;5079431;28;20235;-85
2022/05/04 06:57:46;;;;;;;1.20;1.02;;;19.40;34.50;;;;;;5097714;28;20165;-86
2022/05/04 07:00:12;;;;;;;3.08;0.90;;;19.30;34.50;;;;;;5062528;28;20259;-85
2022/05/04 07:02:38;;;;;;;1.20;1.05;;;19.30;34.30;;;;;;5099065;28;20153;-84
2022/05/04 07:05:04;;;;;;;1.45;0.90;;;19.30;34.30;;;;;;5067671;28;20891;-85
2022/05/04 07:07:31;;;;;;;2.47;1.10;;;19.30;34.30;;;;;;5020983;28;20215;-85
2022/05/04 07:09:58;;;;;;;1.63;1.10;;;19.30;34.20;;;;;;5022037;28;20637;-84
2022/05/04 07:12:24;;;;;;;0.80;0.80;;;19.40;34.00;;;;;;5038550;28;20169;-84
2022/05/04 07:14:51;;;;;;;1.17;0.88;;;19.40;33.90;;;;;;5022036;28;20165;-85
2022/05/04 07:17:17;;;;;;;1.13;0.82;;;19.40;33.60;;;;;;5037982;28;20154;-84
2022/05/04 07:19:47;;;;;;;2.33;0.90;;;19.40;33.70;;;;;;5023450;28;20166;-84
2022/05/04 07:22:13;;;;;;;3.50;1.00;;;19.40;33.70;;;;;;5021674;28;20181;-85
2022/05/04 07:24:39;;;;;;;0.82;0.82;;;19.40;33.70;;;;;;5038343;28;20186;-84
2022/05/04 07:27:06;;;;;;;1.13;1.02;;;19.40;33.70;;;;;;5040486;28;20165;-84
2022/05/04 07:29:34;;;;;;;1.00;0.80;;;19.40;33.70;;;;;;5041006;28;20517;-86
2022/05/04 07:32:00;;;;;;;1.15;1.00;;;19.40;33.60;;;;;;5023550;28;20158;-86
2022/05/04 07:34:26;;;;;;;1.75;0.98;;;19.40;33.50;;;;;;5037011;28;20216;-85
2022/05/04 07:36:52;;;;;;;1.48;0.70;;;19.40;33.60;;;;;;5040071;28;20166;-85
2022/05/04 07:44:34;;;;;;;1.23;0.82;;;19.40;33.30;;;;;;5040538;28;20192;-83
2022/05/04 07:47:00;;;;;;;1.35;0.70;;;19.50;33.30;;;;;;5040194;28;20641;-85
2022/05/04 07:49:27;;;;;;;1.85;1.00;;;19.50;33.30;;;;;;5039656;28;20211;-84
2022/05/04 07:51:53;;;;;;;1.67;0.98;;;19.50;33.00;;;;;;5056744;28;20147;-85
2022/05/04 07:54:18;;;;;;;1.63;0.90;;;19.50;33.00;;;;;;5038442;28;20292;-84
2022/05/04 07:56:44;;;;;;;0.90;0.80;;;19.50;33.30;;;;;;5055112;28;20631;-84
2022/05/04 07:59:10;;;;;;;1.70;0.82;;;19.50;32.80;;;;;;5056151;28;20631;-84
2022/05/04 08:04:17;;;;;;;1.55;1.08;;;19.50;32.60;;;;;;5057365;28;20181;-86
2022/05/04 08:06:44;;;;;;;1.00;0.90;;;19.50;32.80;;;;;;5036239;28;20216;-85
2022/05/04 08:09:09;;;;;;;1.52;0.90;;;19.60;33.10;;;;;;5041687;28;20166;-86
2022/05/04 08:11:35;;;;;;;2.28;0.80;;;19.50;32.60;;;;;;5058758;28;20593;-85
2022/05/04 08:14:01;;;;;;;0.88;0.80;;;19.50;32.60;;;;;;5073220;28;20157;-86
2022/05/04 08:16:27;;;;;;;1.20;0.55;;;19.50;32.80;;;;;;5055214;28;20161;-85
2022/05/04 08:18:53;;;;;;;2.08;0.80;;;19.50;32.10;;;;;;5073520;28;20168;-85
2022/05/04 08:21:19;;;;;;;1.45;0.82;;;19.50;32.50;;;;;;5076582;28;20162;-85
2022/05/04 08:23:45;;;;;;;1.20;0.88;;;19.50;32.60;;;;;;5058988;28;20204;-85
2022/05/04 08:26:12;;;;;;;0.80;0.80;;;19.60;32.20;;;;;;5059196;28;20613;-85
2022/05/04 08:28:38;;;;;;;0.80;0.80;;;19.50;32.00;;;;;;5059066;28;20150;-85
2022/05/04 08:31:05;;;;;;;1.52;0.80;;;19.50;32.10;;;;;;5042906;28;20166;-87
2022/05/04 08:33:31;;;;;;;1.52;1.05;;;19.50;31.80;;;;;;5058978;28;20153;-84
2022/05/04 08:35:57;;;;;;;0.88;0.85;;;19.50;31.90;;;;;;5076625;28;20154;-84
2022/05/04 08:38:22;;;;;;;1.00;0.80;;;19.50;32.00;;;;;;5042156;28;20267;-85
2022/05/04 08:40:51;;;;;;;1.17;1.08;;;19.50;31.90;;;;;;5058693;28;20181;-83
2022/05/04 08:43:18;;;;;;;0.77;0.75;;;19.50;32.10;;;;;;5058445;28;20664;-84
2022/05/04 08:45:43;;;;;;;1.60;0.90;;;19.40;31.70;;;;;;5059135;28;20632;-84
2022/05/04 08:48:09;;;;;;;1.17;0.80;;;19.50;32.10;;;;;;5042044;28;20215;-84
2022/05/04 08:50:34;;;;;;;0.98;0.80;;;19.50;32.00;;;;;;5058606;28;20161;-85
2022/05/04 08:53:01;;;;;;;1.13;1.00;;;19.50;31.70;;;;;;5058317;28;20620;-84
2022/05/04 08:55:27;;;;;;;0.95;0.85;;;19.40;31.70;;;;;;5057037;28;20157;-83
2022/05/04 08:57:54;;;;;;;1.20;0.90;;;19.40;31.90;;;;;;5039513;28;20177;-83
2022/05/04 09:00:20;;;;;;;1.60;0.88;;;19.40;31.40;;;;;;5039337;28;20209;-83
2022/05/04 09:02:46;;;;;;;0.82;0.82;;;19.40;31.50;;;;;;5056148;28;20601;-83
2022/05/04 09:05:14;;;;;;;0.80;0.70;;;19.50;31.50;;;;;;5037240;28;20632;-83
2022/05/04 09:07:40;;;;;;;1.15;0.75;;;19.50;31.10;;;;;;5056985;28;20567;-83
2022/05/04 09:10:06;;;;;;;1.00;0.77;;;19.50;31.00;;;;;;5057376;28;20244;-83
2022/05/04 09:12:33;;;;;;;1.05;0.77;;;19.50;31.00;;;;;;5058421;28;20189;-83
2022/05/04 09:14:59;;;;;;;1.25;0.77;;;19.50;30.80;;;;;;5059114;28;20169;-83
2022/05/04 09:17:25;;;;;;;0.65;0.65;;;19.50;30.80;;;;;;5041754;28;20177;-83
2022/05/04 09:20:45;;;;;;;1.30;0.77;;;19.50;30.80;;;;;;5057963;28;20150;-84
2022/05/04 09:22:40;;;;;;;2.00;0.90;;;19.40;30.10;;;;;;5060653;28;20184;-83
2022/05/04 09:25:13;;;;;;;1.63;0.88;;;19.50;30.50;;;;;;5040941;28;20197;-83
2022/05/04 09:27:39;;;;;;;1.00;0.90;;;19.50;30.40;;;;;;5057745;28;20160;-83
2022/05/04 09:30:06;;;;;;;1.42;1.00;;;19.50;30.80;;;;;;5040880;28;20161;-84
2022/05/04 09:32:31;;;;;;;1.42;0.95;;;19.50;30.20;;;;;;5056857;28;20160;-83
2022/05/04 09:34:57;;;;;;;0.80;0.80;;;19.50;30.50;;;;;;5041510;28;20169;-84
2022/05/04 09:45:35;;;;;;;1.13;0.90;;;19.60;29.70;;;;;;5059732;28;20219;-85
2022/05/04 09:48:00;;;;;;;0.68;0.68;;;19.60;29.80;;;;;;5059219;28;20179;-83
2022/05/04 09:50:26;;;;;;;0.63;0.63;;;19.50;29.40;;;;;;5058225;28;20631;-83
2022/05/04 09:52:53;;;;;;;2.78;0.80;;;19.60;29.60;;;;;;5024898;28;20165;-83
2022/05/04 09:55:22;;;;;;;1.20;0.70;;;19.60;29.50;;;;;;5076261;28;20169;-83
2022/05/04 09:57:48;;;;;;;1.40;0.70;;;19.60;29.00;;;;;;5025957;28;20252;-84
2022/05/04 10:00:15;;;;;;;2.58;1.00;;;19.60;29.20;;;;;;5025918;28;20193;-84
2022/05/04 10:02:41;;;;;;;1.75;0.88;;;19.50;29.20;;;;;;5058875;28;20150;-83
2022/05/04 10:05:08;;;;;;;1.60;0.95;;;19.50;29.40;;;;;;5036350;28;20225;-83
2022/05/04 10:07:36;;;;;;;1.10;0.80;;;19.50;29.40;;;;;;5021201;28;20168;-83
2022/05/04 10:10:05;;;;;;;1.48;0.80;;;19.40;29.10;;;;;;5020540;28;20162;-83
2022/05/04 10:12:32;;;;;;;1.42;0.75;;;19.40;28.90;;;;;;5005283;28;20582;-83
2022/05/04 10:14:59;;;;;;;1.00;0.85;;;19.50;28.80;;;;;;5020645;28;20162;-83
2022/05/04 10:17:25;;;;;;;2.30;1.00;;;19.50;29.20;;;;;;5036922;28;20629;-83
2022/05/04 10:19:57;;;;;;;0.60;0.60;;;19.50;28.80;;;;;;5020287;28;20170;-83
2022/05/04 10:22:41;;;;;;;0.90;0.85;;;19.60;28.90;;;;;;5020143;28;20256;-83
2022/05/04 10:25:07;;;;;;;0.95;0.70;;;19.50;29.00;;;;;;5020096;28;20194;-83
2022/05/04 10:27:39;;;;;;;1.33;0.80;;;19.40;28.80;;;;;;5036782;28;20154;-83
2022/05/04 10:32:46;;;;;;;0.77;0.77;;;19.50;28.80;;;;;;5038453;28;20162;-82
2022/05/04 10:35:20;;;;;;;1.40;0.82;;;19.50;29.00;;;;;;5036961;28;20162;-82
2022/05/04 10:38:13;;;;;;;0.68;0.68;;;19.50;28.90;;;;;;5020281;28;20244;-82
2022/05/04 10:40:59;;;;;;;0.95;0.77;;;19.50;28.80;;;;;;5008835;28;20166;-83
2022/05/04 10:43:37;;;;;;;1.67;0.80;;;19.40;28.40;;;;;;5035094;28;20570;-82
2022/05/04 10:46:09;;;;;;;0.88;0.80;;;19.50;28.90;;;;;;5020062;28;20172;-82
2022/05/04 10:48:35;;;;;;;2.15;0.90;;;19.50;28.50;;;;;;5054189;28;20375;-84
2022/05/04 10:51:10;;;;;;;0.68;0.63;;;19.40;28.30;;;;;;5019827;28;20272;-83
2022/05/04 10:53:38;;;;;;;1.00;0.88;;;19.50;28.10;;;;;;5036548;28;20188;-83
2022/05/04 10:56:08;;;;;;;1.83;0.70;;;19.50;28.50;;;;;;5036129;28;20161;-84
2022/05/04 10:58:44;;;;;;;0.88;0.70;;;19.40;28.50;;;;;;5052944;28;20621;-84
2022/05/04 11:01:13;;;;;;;0.70;0.70;;;19.40;28.40;;;;;;5005196;28;20232;-84
2022/05/04 11:03:49;;;;;;;0.52;0.52;;;19.40;28.10;;;;;;5019453;28;20197;-86
2022/05/04 11:06:30;;;;;;;1.10;0.88;;;19.50;27.50;;;;;;5036121;28;20217;-85
2022/05/04 11:08:57;;;;;;;1.13;0.70;;;19.50;28.00;;;;;;5019970;28;20174;-85
2022/05/04 11:11:23;;;;;;;0.98;0.80;;;19.50;28.00;;;;;;5035651;28;20182;-83
2022/05/04 11:13:50;;;;;;;1.35;0.90;;;19.60;28.30;;;;;;5034785;28;20185;-84
2022/05/04 11:16:16;;;;;;;1.35;0.80;;;19.60;27.80;;;;;;5035705;28;20239;-87
2022/05/04 11:18:42;;;;;;;1.00;0.80;;;19.70;27.90;;;;;;5035303;28;20680;-85
2022/05/04 11:21:13;;;;;;;0.98;0.70;;;19.70;28.10;;;;;;5035964;28;20169;-84
2022/05/04 11:23:52;;;;;;;0.73;0.70;;;19.60;28.00;;;;;;5058533;28;20182;-81
2022/05/04 11:26:27;;;;;;;2.15;0.80;;;19.60;28.00;;;;;;5022379;28;20174;-87
2022/05/04 11:28:53;;;;;;;0.80;0.70;;;19.50;27.60;;;;;;5003376;28;20583;-88
2022/05/04 11:31:24;;;;;;;2.08;0.80;;;19.60;27.70;;;;;;5036646;28;20181;-83
2022/05/04 11:33:50;;;;;;;1.23;0.80;;;19.60;27.50;;;;;;5019318;28;20186;-83
2022/05/04 11:36:21;;;;;;;1.38;1.00;;;19.60;27.80;;;;;;5022515;28;20209;-83
2022/05/04 11:38:48;;;;;;;1.60;1.00;;;19.60;28.00;;;;;;5005410;28;20523;-85
2022/05/04 11:41:18;;;;;;;1.67;1.00;;;19.60;28.10;;;;;;5026366;28;20178;-83
2022/05/04 11:43:50;;;;;;;0.88;0.88;;;19.60;28.10;;;;;;5013288;28;20205;-85
2022/05/04 11:46:24;;;;;;;1.02;0.90;;;19.60;28.10;;;;;;5013493;28;20189;-84
2022/05/04 11:48:50;;;;;;;1.35;0.68;;;19.60;28.00;;;;;;5021729;28;20178;-84
2022/05/04 11:51:17;;;;;;;1.13;0.95;;;19.60;27.80;;;;;;5022450;28;20532;-88
2022/05/04 11:53:47;;;;;;;1.30;0.85;;;19.60;27.90;;;;;;5002799;28;20186;-84
2022/05/04 11:56:13;;;;;;;1.65;0.70;;;19.60;28.00;;;;;;4969195;28;20210;-87
2022/05/04 11:58:45;;;;;;;1.58;0.88;;;19.60;27.80;;;;;;5000257;28;20357;-85
2022/05/04 12:01:16;;;;;;;1.15;0.80;;;19.60;27.90;;;;;;5001051;28;20174;-86
2022/05/04 12:03:44;;;;;;;3.33;0.82;;;19.50;27.90;;;;;;4986168;28;20704;-86
2022/05/04 12:06:11;;;;;;;0.70;0.70;;;19.60;27.80;;;;;;5035612;28;20218;-87
2022/05/04 12:08:41;;;;;;;0.80;0.80;;;19.60;28.00;;;;;;5000205;28;20184;-85
2022/05/04 12:11:08;;;;;;;1.02;0.93;;;19.60;27.70;;;;;;4982639;28;20186;-86
2022/05/04 12:13:36;;;;;;;2.42;0.90;;;19.60;27.70;;;;;;5014708;28;20557;-85
2022/05/04 12:16:07;;;;;;;0.70;0.70;;;19.60;27.80;;;;;;4999015;28;20167;-85
2022/05/04 12:18:36;;;;;;;1.67;0.75;;;19.50;27.80;;;;;;4983812;28;20182;-86
2022/05/04 12:21:11;;;;;;;1.20;1.08;;;19.50;27.70;;;;;;5016715;28;20151;-86
2022/05/04 12:23:40;;;;;;;1.20;0.82;;;19.50;27.80;;;;;;5017021;28;20247;-84
2022/05/04 12:26:07;;;;;;;1.08;0.80;;;19.70;27.80;;;;;;5020353;28;20580;-87
2022/05/04 12:28:38;;;;;;;0.82;0.80;;;19.70;27.50;;;;;;5036777;28;20204;-85
2022/05/04 12:34:16;;;;;;;0.82;0.80;;;19.80;27.30;;;;;;5041197;28;20572;-85
2022/05/04 12:36:47;;;;;;;1.88;0.80;;;19.80;27.30;;;;;;5032249;28;20221;-84
2022/05/04 12:39:13;;;;;;;1.52;0.85;;;19.80;27.40;;;;;;5004272;28;20240;-85
2022/05/04 12:41:46;;;;;;;1.98;1.00;;;19.70;27.30;;;;;;5039579;28;20215;-84
2022/05/04 12:44:14;;;;;;;0.75;0.75;;;19.80;27.40;;;;;;5007536;28;20216;-88
2022/05/04 12:46:52;;;;;;;1.00;0.90;;;19.90;27.50;;;;;;5040658;28;20236;-84
2022/05/04 12:49:24;;;;;;;1.85;1.08;;;19.80;27.40;;;;;;5023527;28;20174;-86
2022/05/04 12:51:51;;;;;;;1.85;0.80;;;19.80;27.40;;;;;;4991566;28;20548;-88
2022/05/04 12:54:17;;;;;;;1.15;0.95;;;19.80;27.40;;;;;;5040526;28;20162;-86
2022/05/04 12:56:46;;;;;;;0.75;0.73;;;19.80;27.50;;;;;;5044066;28;20188;-87
2022/05/04 12:59:18;;;;;;;0.88;0.88;;;19.80;27.40;;;;;;5020160;28;20185;-86
2022/05/04 13:01:54;;;;;;;1.80;1.00;;;19.90;27.50;;;;;;4999634;28;20174;-86
2022/05/04 13:04:19;;;;;;;0.80;0.80;;;19.80;27.80;;;;;;5005314;28;20213;-83
2022/05/04 13:06:49;;;;;;;1.02;0.93;;;19.70;27.80;;;;;;5037603;28;20228;-85
2022/05/04 13:09:28;;;;;;;1.00;0.90;;;19.60;27.80;;;;;;5063834;28;20194;-84
2022/05/04 13:15:27;;;;;;;1.42;1.13;;;19.60;28.20;;;;;;5081850;28;20184;-87
2022/05/04 13:18:10;;;;;;;;;;;;;;;;;;;;;
2022/05/04 13:20:39;;;;;;;1.58;0.90;;;19.60;27.80;;;;;;5006467;28;20293;-83
2022/05/04 13:23:11;;;;;;;1.10;0.73;;;19.70;27.60;;;;;;5001148;28;20205;-83
2022/05/04 13:25:40;;;;;;;1.52;1.02;;;19.90;27.50;;;;;;4992224;28;20309;-85
2022/05/04 13:28:26;;;;;;;1.17;0.85;;;19.80;27.40;;;;;;5006805;28;20179;-86
2022/05/04 13:30:56;;;;;;;2.45;1.00;;;19.80;27.40;;;;;;5005107;28;20185;-85
2022/05/04 13:33:27;;;;;;;1.05;0.98;;;19.80;27.00;;;;;;4973061;28;20667;-85
2022/05/04 13:35:57;;;;;;;1.77;0.88;;;19.80;27.00;;;;;;5004966;28;20269;-85